sensor_id;sensor_type;location;lat;lon;timestamp;temperature;humidity
3198;DHT22;1611;49.394;11.136;2022-10-03T00:00:07;11.90;77.80
3198;DHT22;1611;49.394;11.136;2022-10-03T00:02:52;11.80;78.30
3198;DHT22;1611;49.394;11.136;2022-10-03T00:05:34;11.90;77.90
3198;DHT22;1611;49.394;11.136;2022-10-03T00:08:11;11.80;78.30
3198;DHT22;1611;49.394;11.136;2022-10-03T00:10:54;11.90;78.30
3198;DHT22;1611;49.394;11.136;2022-10-03T00:13:28;11.90;78.00
3198;DHT22;1611;49.394;11.136;2022-10-03T00:16:08;11.90;78.20
3198;DHT22;1611;49.394;11.136;2022-10-03T00:18:45;12.00;78.30
3198;DHT22;1611;49.394;11.136;2022-10-03T00:21:23;12.00;77.90
3198;DHT22;1611;49.394;11.136;2022-10-03T00:24:00;12.00;77.50
3198;DHT22;1611;49.394;11.136;2022-10-03T00:26:39;12.00;77.60
3198;DHT22;1611;49.394;11.136;2022-10-03T00:29:30;12.00;77.50
3198;DHT22;1611;49.394;11.136;2022-10-03T00:32:05;12.00;77.70
3198;DHT22;1611;49.394;11.136;2022-10-03T00:34:51;12.00;77.70
3198;DHT22;1611;49.394;11.136;2022-10-03T00:37:26;12.00;77.70
3198;DHT22;1611;49.394;11.136;2022-10-03T00:40:17;12.00;77.60
3198;DHT22;1611;49.394;11.136;2022-10-03T00:43:25;12.00;77.60
3198;DHT22;1611;49.394;11.136;2022-10-03T00:46:12;12.00;77.60
3198;DHT22;1611;49.394;11.136;2022-10-03T00:49:12;12.00;77.50
3198;DHT22;1611;49.394;11.136;2022-10-03T00:51:59;12.00;77.80
3198;DHT22;1611;49.394;11.136;2022-10-03T00:54:44;12.00;77.70
3198;DHT22;1611;49.394;11.136;2022-10-03T00:57:25;12.00;77.70
3198;DHT22;1611;49.394;11.136;2022-10-03T01:00:12;12.00;77.80
3198;DHT22;1611;49.394;11.136;2022-10-03T01:05:38;12.00;77.90
3198;DHT22;1611;49.394;11.136;2022-10-03T01:11:26;12.10;78.00
3198;DHT22;1611;49.394;11.136;2022-10-03T01:14:04;12.10;78.10
3198;DHT22;1611;49.394;11.136;2022-10-03T01:16:40;12.10;77.90
3198;DHT22;1611;49.394;11.136;2022-10-03T01:19:27;12.00;78.00
3198;DHT22;1611;49.394;11.136;2022-10-03T01:22:09;12.00;77.90
3198;DHT22;1611;49.394;11.136;2022-10-03T01:24:51;12.00;78.00
3198;DHT22;1611;49.394;11.136;2022-10-03T01:27:25;12.00;77.60
3198;DHT22;1611;49.394;11.136;2022-10-03T01:30:00;12.00;77.50
3198;DHT22;1611;49.394;11.136;2022-10-03T01:32:49;12.00;77.50
3198;DHT22;1611;49.394;11.136;2022-10-03T01:35:28;12.00;77.70
3198;DHT22;1611;49.394;11.136;2022-10-03T01:38:03;12.00;77.50
3198;DHT22;1611;49.394;11.136;2022-10-03T01:40:35;12.00;77.30
3198;DHT22;1611;49.394;11.136;2022-10-03T01:43:13;12.00;77.30
3198;DHT22;1611;49.394;11.136;2022-10-03T01:45:50;12.00;77.30
3198;DHT22;1611;49.394;11.136;2022-10-03T01:48:25;11.90;77.70
3198;DHT22;1611;49.394;11.136;2022-10-03T01:51:00;11.90;77.60
3198;DHT22;1611;49.394;11.136;2022-10-03T01:53:37;11.80;77.30
3198;DHT22;1611;49.394;11.136;2022-10-03T01:56:10;11.90;77.80
3198;DHT22;1611;49.394;11.136;2022-10-03T01:58:50;11.80;77.50
3198;DHT22;1611;49.394;11.136;2022-10-03T02:01:28;11.80;77.50
3198;DHT22;1611;49.394;11.136;2022-10-03T02:04:03;11.90;77.10
3198;DHT22;1611;49.394;11.136;2022-10-03T02:06:41;11.90;77.30
3198;DHT22;1611;49.394;11.136;2022-10-03T02:09:14;11.90;77.40
3198;DHT22;1611;49.394;11.136;2022-10-03T02:12:01;11.90;77.10
3198;DHT22;1611;49.394;11.136;2022-10-03T02:14:33;12.00;77.00
3198;DHT22;1611;49.394;11.136;2022-10-03T02:17:13;11.90;77.00
3198;DHT22;1611;49.394;11.136;2022-10-03T02:19:48;11.90;76.90
3198;DHT22;1611;49.394;11.136;2022-10-03T02:22:28;11.90;76.90
3198;DHT22;1611;49.394;11.136;2022-10-03T02:25:07;11.90;76.70
3198;DHT22;1611;49.394;11.136;2022-10-03T02:30:37;11.90;76.80
3198;DHT22;1611;49.394;11.136;2022-10-03T02:33:52;11.90;76.70
3198;DHT22;1611;49.394;11.136;2022-10-03T02:39:59;12.00;76.90
3198;DHT22;1611;49.394;11.136;2022-10-03T02:43:04;11.90;76.50
3198;DHT22;1611;49.394;11.136;2022-10-03T02:45:59;11.90;76.60
3198;DHT22;1611;49.394;11.136;2022-10-03T02:48:54;11.80;76.20
3198;DHT22;1611;49.394;11.136;2022-10-03T02:51:46;11.80;76.20
3198;DHT22;1611;49.394;11.136;2022-10-03T02:54:45;11.70;76.20
3198;DHT22;1611;49.394;11.136;2022-10-03T02:57:37;11.70;76.60
3198;DHT22;1611;49.394;11.136;2022-10-03T03:00:11;11.60;76.70
3198;DHT22;1611;49.394;11.136;2022-10-03T03:06:31;11.60;76.70
3198;DHT22;1611;49.394;11.136;2022-10-03T03:09:45;11.50;76.80
3198;DHT22;1611;49.394;11.136;2022-10-03T03:12:41;11.50;77.00
3198;DHT22;1611;49.394;11.136;2022-10-03T03:18:20;11.50;76.90
3198;DHT22;1611;49.394;11.136;2022-10-03T03:21:09;11.50;77.10
3198;DHT22;1611;49.394;11.136;2022-10-03T03:23:50;11.50;77.10
3198;DHT22;1611;49.394;11.136;2022-10-03T03:26:44;11.50;76.80
3198;DHT22;1611;49.394;11.136;2022-10-03T03:29:23;11.60;76.60
3198;DHT22;1611;49.394;11.136;2022-10-03T03:32:01;11.60;76.60
3198;DHT22;1611;49.394;11.136;2022-10-03T03:34:39;11.60;76.50
3198;DHT22;1611;49.394;11.136;2022-10-03T03:37:12;11.60;76.40
3198;DHT22;1611;49.394;11.136;2022-10-03T03:40:18;11.60;76.00
3198;DHT22;1611;49.394;11.136;2022-10-03T03:43:05;11.60;75.80
3198;DHT22;1611;49.394;11.136;2022-10-03T03:45:44;11.40;76.10
3198;DHT22;1611;49.394;11.136;2022-10-03T03:48:34;11.50;76.40
3198;DHT22;1611;49.394;11.136;2022-10-03T03:51:15;11.50;76.20
3198;DHT22;1611;49.394;11.136;2022-10-03T03:56:53;11.50;76.20
3198;DHT22;1611;49.394;11.136;2022-10-03T03:59:39;11.50;76.50
3198;DHT22;1611;49.394;11.136;2022-10-03T04:02:22;11.50;76.60
3198;DHT22;1611;49.394;11.136;2022-10-03T04:05:03;11.50;76.20
3198;DHT22;1611;49.394;11.136;2022-10-03T04:07:42;11.40;76.20
3198;DHT22;1611;49.394;11.136;2022-10-03T04:10:23;11.40;76.20
3198;DHT22;1611;49.394;11.136;2022-10-03T04:16:10;11.40;76.40
3198;DHT22;1611;49.394;11.136;2022-10-03T04:18:57;11.40;76.10
3198;DHT22;1611;49.394;11.136;2022-10-03T04:21:43;11.40;76.40
3198;DHT22;1611;49.394;11.136;2022-10-03T04:27:42;11.40;76.90
3198;DHT22;1611;49.394;11.136;2022-10-03T04:30:18;11.30;76.50
3198;DHT22;1611;49.394;11.136;2022-10-03T04:33:08;11.30;76.90
3198;DHT22;1611;49.394;11.136;2022-10-03T04:38:55;11.40;76.60
3198;DHT22;1611;49.394;11.136;2022-10-03T04:41:30;11.30;77.10
3198;DHT22;1611;49.394;11.136;2022-10-03T04:44:10;11.40;76.90
3198;DHT22;1611;49.394;11.136;2022-10-03T04:46:49;11.40;76.90
3198;DHT22;1611;49.394;11.136;2022-10-03T04:49:22;11.40;76.70
3198;DHT22;1611;49.394;11.136;2022-10-03T04:51:56;11.50;76.90
3198;DHT22;1611;49.394;11.136;2022-10-03T04:54:28;11.50;76.90
3198;DHT22;1611;49.394;11.136;2022-10-03T04:57:01;11.50;76.60
3198;DHT22;1611;49.394;11.136;2022-10-03T04:59:39;11.40;76.80
3198;DHT22;1611;49.394;11.136;2022-10-03T05:02:22;11.50;76.80
3198;DHT22;1611;49.394;11.136;2022-10-03T05:05:17;11.40;76.30
3198;DHT22;1611;49.394;11.136;2022-10-03T05:07:52;11.40;76.30
3198;DHT22;1611;49.394;11.136;2022-10-03T05:10:27;11.40;76.30
3198;DHT22;1611;49.394;11.136;2022-10-03T05:13:00;11.50;76.30
3198;DHT22;1611;49.394;11.136;2022-10-03T05:15:32;11.40;75.90
3198;DHT22;1611;49.394;11.136;2022-10-03T05:18:10;11.40;76.10
3198;DHT22;1611;49.394;11.136;2022-10-03T05:20:51;11.30;76.10
3198;DHT22;1611;49.394;11.136;2022-10-03T05:23:30;11.30;76.30
3198;DHT22;1611;49.394;11.136;2022-10-03T05:26:04;11.30;76.30
3198;DHT22;1611;49.394;11.136;2022-10-03T05:28:38;11.20;75.90
3198;DHT22;1611;49.394;11.136;2022-10-03T05:31:21;11.20;75.90
3198;DHT22;1611;49.394;11.136;2022-10-03T05:33:58;11.10;76.10
3198;DHT22;1611;49.394;11.136;2022-10-03T05:36:32;11.10;76.50
3198;DHT22;1611;49.394;11.136;2022-10-03T05:39:22;11.10;77.40
3198;DHT22;1611;49.394;11.136;2022-10-03T05:41:51;11.10;76.30
3198;DHT22;1611;49.394;11.136;2022-10-03T05:44:22;11.20;76.10
3198;DHT22;1611;49.394;11.136;2022-10-03T05:46:58;11.20;76.20
3198;DHT22;1611;49.394;11.136;2022-10-03T05:52:36;11.20;76.40
3198;DHT22;1611;49.394;11.136;2022-10-03T05:55:17;11.30;76.10
3198;DHT22;1611;49.394;11.136;2022-10-03T05:58:05;11.30;76.20
3198;DHT22;1611;49.394;11.136;2022-10-03T06:00:52;11.30;76.20
3198;DHT22;1611;49.394;11.136;2022-10-03T06:03:55;11.30;76.20
3198;DHT22;1611;49.394;11.136;2022-10-03T06:06:32;11.50;75.90
3198;DHT22;1611;49.394;11.136;2022-10-03T06:09:39;11.50;76.00
3198;DHT22;1611;49.394;11.136;2022-10-03T06:12:15;11.50;75.60
3198;DHT22;1611;49.394;11.136;2022-10-03T06:15:02;11.60;75.50
3198;DHT22;1611;49.394;11.136;2022-10-03T06:18:01;11.70;75.20
3198;DHT22;1611;49.394;11.136;2022-10-03T06:21:05;11.70;74.50
3198;DHT22;1611;49.394;11.136;2022-10-03T06:23:57;11.80;74.10
3198;DHT22;1611;49.394;11.136;2022-10-03T06:26:49;11.80;73.90
3198;DHT22;1611;49.394;11.136;2022-10-03T06:33:03;12.00;74.90
3198;DHT22;1611;49.394;11.136;2022-10-03T06:36:06;12.00;74.30
3198;DHT22;1611;49.394;11.136;2022-10-03T06:48:01;12.00;73.10
3198;DHT22;1611;49.394;11.136;2022-10-03T06:50:53;12.10;72.90
3198;DHT22;1611;49.394;11.136;2022-10-03T06:53:39;12.10;72.60
3198;DHT22;1611;49.394;11.136;2022-10-03T06:56:46;12.30;72.10
3198;DHT22;1611;49.394;11.136;2022-10-03T06:59:44;12.10;71.60
3198;DHT22;1611;49.394;11.136;2022-10-03T07:06:14;12.10;71.40
3198;DHT22;1611;49.394;11.136;2022-10-03T07:12:15;12.20;71.80
3198;DHT22;1611;49.394;11.136;2022-10-03T07:18:30;12.10;70.50
3198;DHT22;1611;49.394;11.136;2022-10-03T07:21:27;12.10;70.60
3198;DHT22;1611;49.394;11.136;2022-10-03T07:24:10;12.20;70.00
3198;DHT22;1611;49.394;11.136;2022-10-03T07:27:03;12.20;70.00
3198;DHT22;1611;49.394;11.136;2022-10-03T07:30:15;12.30;70.60
3198;DHT22;1611;49.394;11.136;2022-10-03T07:33:17;12.40;69.40
3198;DHT22;1611;49.394;11.136;2022-10-03T07:39:43;12.30;69.60
3198;DHT22;1611;49.394;11.136;2022-10-03T07:42:52;12.30;70.20
3198;DHT22;1611;49.394;11.136;2022-10-03T07:45:33;12.40;70.30
3198;DHT22;1611;49.394;11.136;2022-10-03T07:51:13;12.40;69.50
3198;DHT22;1611;49.394;11.136;2022-10-03T07:57:07;12.40;69.80
3198;DHT22;1611;49.394;11.136;2022-10-03T07:59:59;12.50;70.20
3198;DHT22;1611;49.394;11.136;2022-10-03T08:02:53;12.60;68.60
3198;DHT22;1611;49.394;11.136;2022-10-03T08:05:42;12.60;67.60
3198;DHT22;1611;49.394;11.136;2022-10-03T08:08:36;12.80;68.00
3198;DHT22;1611;49.394;11.136;2022-10-03T08:11:24;13.00;68.50
3198;DHT22;1611;49.394;11.136;2022-10-03T08:14:11;13.00;68.00
3198;DHT22;1611;49.394;11.136;2022-10-03T08:20:14;13.30;65.60
3198;DHT22;1611;49.394;11.136;2022-10-03T08:22:58;13.50;65.60
3198;DHT22;1611;49.394;11.136;2022-10-03T08:25:35;13.60;64.80
3198;DHT22;1611;49.394;11.136;2022-10-03T08:28:26;13.60;64.80
3198;DHT22;1611;49.394;11.136;2022-10-03T08:34:32;13.70;63.50
3198;DHT22;1611;49.394;11.136;2022-10-03T08:37:33;13.80;64.00
3198;DHT22;1611;49.394;11.136;2022-10-03T08:43:45;14.00;62.00
3198;DHT22;1611;49.394;11.136;2022-10-03T08:49:16;14.10;62.10
3198;DHT22;1611;49.394;11.136;2022-10-03T08:52:09;14.10;61.70
3198;DHT22;1611;49.394;11.136;2022-10-03T09:00:54;14.40;60.90
3198;DHT22;1611;49.394;11.136;2022-10-03T09:04:09;14.50;60.60
3198;DHT22;1611;49.394;11.136;2022-10-03T09:07:05;14.60;60.40
3198;DHT22;1611;49.394;11.136;2022-10-03T09:13:07;14.70;56.40
3198;DHT22;1611;49.394;11.136;2022-10-03T09:16:16;14.70;55.20
3198;DHT22;1611;49.394;11.136;2022-10-03T09:19:02;14.80;58.00
3198;DHT22;1611;49.394;11.136;2022-10-03T09:25:09;14.60;56.10
3198;DHT22;1611;49.394;11.136;2022-10-03T09:27:52;14.40;58.10
3198;DHT22;1611;49.394;11.136;2022-10-03T09:39:53;14.50;59.30
3198;DHT22;1611;49.394;11.136;2022-10-03T09:45:36;14.40;57.60
3198;DHT22;1611;49.394;11.136;2022-10-03T09:48:25;14.20;60.10
3198;DHT22;1611;49.394;11.136;2022-10-03T09:51:24;14.10;60.60
3198;DHT22;1611;49.394;11.136;2022-10-03T09:54:21;13.90;61.40
3198;DHT22;1611;49.394;11.136;2022-10-03T09:57:20;13.80;62.80
3198;DHT22;1611;49.394;11.136;2022-10-03T10:00:07;13.80;59.80
3198;DHT22;1611;49.394;11.136;2022-10-03T10:06:02;14.90;59.30
3198;DHT22;1611;49.394;11.136;2022-10-03T10:11:30;15.80;52.40
3198;DHT22;1611;49.394;11.136;2022-10-03T10:14:17;15.80;50.80
3198;DHT22;1611;49.394;11.136;2022-10-03T10:23:25;15.40;50.70
3198;DHT22;1611;49.394;11.136;2022-10-03T10:26:29;15.20;51.20
3198;DHT22;1611;49.394;11.136;2022-10-03T10:29:40;15.30;53.10
3198;DHT22;1611;49.394;11.136;2022-10-03T10:38:33;15.80;48.70
3198;DHT22;1611;49.394;11.136;2022-10-03T10:45:02;16.20;48.20
3198;DHT22;1611;49.394;11.136;2022-10-03T10:54:22;16.40;45.20
3198;DHT22;1611;49.394;11.136;2022-10-03T10:57:20;16.60;44.10
3198;DHT22;1611;49.394;11.136;2022-10-03T11:00:12;16.70;45.30
3198;DHT22;1611;49.394;11.136;2022-10-03T11:06:29;16.80;44.20
3198;DHT22;1611;49.394;11.136;2022-10-03T11:12:29;16.60;44.80
3198;DHT22;1611;49.394;11.136;2022-10-03T11:15:40;16.50;46.00
3198;DHT22;1611;49.394;11.136;2022-10-03T11:18:45;16.20;44.50
3198;DHT22;1611;49.394;11.136;2022-10-03T11:21:45;15.70;45.30
3198;DHT22;1611;49.394;11.136;2022-10-03T11:30:19;15.50;49.50
3198;DHT22;1611;49.394;11.136;2022-10-03T11:36:10;16.10;47.50
3198;DHT22;1611;49.394;11.136;2022-10-03T11:38:48;16.00;44.20
3198;DHT22;1611;49.394;11.136;2022-10-03T11:41:28;16.10;47.30
3198;DHT22;1611;49.394;11.136;2022-10-03T11:44:20;16.10;47.20
3198;DHT22;1611;49.394;11.136;2022-10-03T11:47:22;16.10;45.00
3198;DHT22;1611;49.394;11.136;2022-10-03T12:02:00;20.90;28.90
3198;DHT22;1611;49.394;11.136;2022-10-03T12:04:39;21.10;28.40
3198;DHT22;1611;49.394;11.136;2022-10-03T12:07:16;20.80;28.50
3198;DHT22;1611;49.394;11.136;2022-10-03T12:10:11;20.40;30.10
3198;DHT22;1611;49.394;11.136;2022-10-03T12:12:43;19.50;30.30
3198;DHT22;1611;49.394;11.136;2022-10-03T12:15:22;18.90;33.20
3198;DHT22;1611;49.394;11.136;2022-10-03T12:18:00;18.30;37.00
3198;DHT22;1611;49.394;11.136;2022-10-03T12:20:38;17.90;38.70
3198;DHT22;1611;49.394;11.136;2022-10-03T12:23:20;17.30;34.30
3198;DHT22;1611;49.394;11.136;2022-10-03T12:25:55;16.80;33.00
3198;DHT22;1611;49.394;11.136;2022-10-03T12:28:24;16.40;33.80
3198;DHT22;1611;49.394;11.136;2022-10-03T12:30:55;16.30;35.30
3198;DHT22;1611;49.394;11.136;2022-10-03T12:33:38;16.30;38.30
3198;DHT22;1611;49.394;11.136;2022-10-03T12:36:11;16.20;37.90
3198;DHT22;1611;49.394;11.136;2022-10-03T12:38:59;16.30;38.20
3198;DHT22;1611;49.394;11.136;2022-10-03T12:41:43;16.30;37.30
3198;DHT22;1611;49.394;11.136;2022-10-03T12:44:21;16.30;36.40
3198;DHT22;1611;49.394;11.136;2022-10-03T12:47:01;16.30;40.40
3198;DHT22;1611;49.394;11.136;2022-10-03T12:49:42;16.30;37.70
3198;DHT22;1611;49.394;11.136;2022-10-03T12:52:19;16.20;39.10
3198;DHT22;1611;49.394;11.136;2022-10-03T12:54:52;16.50;40.00
3198;DHT22;1611;49.394;11.136;2022-10-03T12:57:38;17.30;42.60
3198;DHT22;1611;49.394;11.136;2022-10-03T13:00:15;18.50;33.00
3198;DHT22;1611;49.394;11.136;2022-10-03T13:02:55;18.80;31.50
3198;DHT22;1611;49.394;11.136;2022-10-03T13:05:42;18.80;31.90
3198;DHT22;1611;49.394;11.136;2022-10-03T13:08:29;18.50;29.40
3198;DHT22;1611;49.394;11.136;2022-10-03T13:11:11;18.10;30.60
3198;DHT22;1611;49.394;11.136;2022-10-03T13:13:51;17.70;31.70
3198;DHT22;1611;49.394;11.136;2022-10-03T13:16:24;17.40;32.50
3198;DHT22;1611;49.394;11.136;2022-10-03T13:19:00;17.00;33.10
3198;DHT22;1611;49.394;11.136;2022-10-03T13:21:53;16.80;34.20
3198;DHT22;1611;49.394;11.136;2022-10-03T13:24:32;16.60;33.10
3198;DHT22;1611;49.394;11.136;2022-10-03T13:27:14;16.40;34.30
3198;DHT22;1611;49.394;11.136;2022-10-03T13:29:44;16.30;32.80
3198;DHT22;1611;49.394;11.136;2022-10-03T13:32:22;16.40;37.20
3198;DHT22;1611;49.394;11.136;2022-10-03T13:35:02;16.30;34.80
3198;DHT22;1611;49.394;11.136;2022-10-03T13:38:21;16.40;35.60
3198;DHT22;1611;49.394;11.136;2022-10-03T13:41:02;16.50;35.00
3198;DHT22;1611;49.394;11.136;2022-10-03T13:43:34;16.60;36.60
3198;DHT22;1611;49.394;11.136;2022-10-03T13:46:05;16.70;31.60
3198;DHT22;1611;49.394;11.136;2022-10-03T13:48:36;16.50;33.00
3198;DHT22;1611;49.394;11.136;2022-10-03T13:51:12;16.60;34.10
3198;DHT22;1611;49.394;11.136;2022-10-03T13:53:52;16.70;33.60
3198;DHT22;1611;49.394;11.136;2022-10-03T13:56:37;16.70;35.10
3198;DHT22;1611;49.394;11.136;2022-10-03T13:59:18;16.70;36.60
3198;DHT22;1611;49.394;11.136;2022-10-03T14:01:52;16.80;35.10
3198;DHT22;1611;49.394;11.136;2022-10-03T14:07:31;16.70;36.50
3198;DHT22;1611;49.394;11.136;2022-10-03T14:10:25;16.80;38.10
3198;DHT22;1611;49.394;11.136;2022-10-03T14:13:09;16.70;38.80
3198;DHT22;1611;49.394;11.136;2022-10-03T14:15:49;16.60;38.20
3198;DHT22;1611;49.394;11.136;2022-10-03T14:18:43;16.30;38.40
3198;DHT22;1611;49.394;11.136;2022-10-03T14:21:44;16.00;40.80
3198;DHT22;1611;49.394;11.136;2022-10-03T14:24:33;15.70;45.60
3198;DHT22;1611;49.394;11.136;2022-10-03T14:27:11;15.40;47.60
3198;DHT22;1611;49.394;11.136;2022-10-03T14:45:12;14.80;51.80
3198;DHT22;1611;49.394;11.136;2022-10-03T14:47:46;14.80;52.40
3198;DHT22;1611;49.394;11.136;2022-10-03T14:50:20;14.70;52.80
3198;DHT22;1611;49.394;11.136;2022-10-03T14:53:06;14.60;54.70
3198;DHT22;1611;49.394;11.136;2022-10-03T14:55:59;14.70;56.30
3198;DHT22;1611;49.394;11.136;2022-10-03T14:58:31;14.80;55.50
3198;DHT22;1611;49.394;11.136;2022-10-03T15:01:20;14.80;55.20
3198;DHT22;1611;49.394;11.136;2022-10-03T15:04:06;15.00;54.90
3198;DHT22;1611;49.394;11.136;2022-10-03T15:14:00;14.90;54.50
3198;DHT22;1611;49.394;11.136;2022-10-03T15:22:34;15.00;54.50
3198;DHT22;1611;49.394;11.136;2022-10-03T15:25:14;15.00;54.60
3198;DHT22;1611;49.394;11.136;2022-10-03T15:27:44;14.90;55.20
3198;DHT22;1611;49.394;11.136;2022-10-03T18:34:18;12.00;69.30
3198;DHT22;1611;49.394;11.136;2022-10-03T18:36:47;11.90;68.80
3198;DHT22;1611;49.394;11.136;2022-10-03T18:39:16;11.90;68.40
3198;DHT22;1611;49.394;11.136;2022-10-03T18:41:45;11.80;68.40
3198;DHT22;1611;49.394;11.136;2022-10-03T18:44:16;11.70;68.50
3198;DHT22;1611;49.394;11.136;2022-10-03T18:46:44;11.60;68.70
3198;DHT22;1611;49.394;11.136;2022-10-03T18:49:21;11.50;69.30
3198;DHT22;1611;49.394;11.136;2022-10-03T18:51:52;11.50;70.10
3198;DHT22;1611;49.394;11.136;2022-10-03T18:54:34;11.40;71.10
3198;DHT22;1611;49.394;11.136;2022-10-03T18:57:07;11.40;71.00
3198;DHT22;1611;49.394;11.136;2022-10-03T18:59:43;11.30;70.50
3198;DHT22;1611;49.394;11.136;2022-10-03T19:02:17;11.30;70.70
3198;DHT22;1611;49.394;11.136;2022-10-03T19:04:51;11.20;70.10
3198;DHT22;1611;49.394;11.136;2022-10-03T19:07:23;11.20;70.70
3198;DHT22;1611;49.394;11.136;2022-10-03T19:10:22;11.10;70.70
3198;DHT22;1611;49.394;11.136;2022-10-03T19:12:57;11.10;71.30
3198;DHT22;1611;49.394;11.136;2022-10-03T19:15:36;11.00;70.70
3198;DHT22;1611;49.394;11.136;2022-10-03T19:18:17;11.00;71.40
3198;DHT22;1611;49.394;11.136;2022-10-03T19:20:49;10.90;71.40
3198;DHT22;1611;49.394;11.136;2022-10-03T19:23:21;10.80;71.50
3198;DHT22;1611;49.394;11.136;2022-10-03T19:25:52;10.70;72.20
3198;DHT22;1611;49.394;11.136;2022-10-03T19:28:25;10.70;72.60
3198;DHT22;1611;49.394;11.136;2022-10-03T19:30:59;10.70;73.20
3198;DHT22;1611;49.394;11.136;2022-10-03T19:33:31;10.60;73.50
3198;DHT22;1611;49.394;11.136;2022-10-03T19:36:03;10.60;73.30
3198;DHT22;1611;49.394;11.136;2022-10-03T19:38:32;10.60;73.10
3198;DHT22;1611;49.394;11.136;2022-10-03T19:41:05;10.60;73.50
3198;DHT22;1611;49.394;11.136;2022-10-03T19:43:37;10.50;73.60
3198;DHT22;1611;49.394;11.136;2022-10-03T19:49:20;10.40;73.60
3198;DHT22;1611;49.394;11.136;2022-10-03T19:51:51;10.40;73.80
3198;DHT22;1611;49.394;11.136;2022-10-03T19:54:29;10.30;73.50
3198;DHT22;1611;49.394;11.136;2022-10-03T19:56:57;10.30;73.70
3198;DHT22;1611;49.394;11.136;2022-10-03T19:59:36;10.30;73.70
3198;DHT22;1611;49.394;11.136;2022-10-03T20:02:10;10.30;73.50
3198;DHT22;1611;49.394;11.136;2022-10-03T20:04:37;10.30;73.40
3198;DHT22;1611;49.394;11.136;2022-10-03T20:07:11;10.30;73.30
3198;DHT22;1611;49.394;11.136;2022-10-03T20:09:53;10.20;73.40
3198;DHT22;1611;49.394;11.136;2022-10-03T20:12:23;10.10;73.60
3198;DHT22;1611;49.394;11.136;2022-10-03T20:14:52;10.10;73.60
3198;DHT22;1611;49.394;11.136;2022-10-03T20:17:20;10.10;74.10
3198;DHT22;1611;49.394;11.136;2022-10-03T20:19:50;10.00;74.00
3198;DHT22;1611;49.394;11.136;2022-10-03T20:22:24;10.00;74.40
3198;DHT22;1611;49.394;11.136;2022-10-03T20:24:52;10.00;74.10
3198;DHT22;1611;49.394;11.136;2022-10-03T20:27:30;9.90;74.00
3198;DHT22;1611;49.394;11.136;2022-10-03T20:30:18;9.90;73.70
3198;DHT22;1611;49.394;11.136;2022-10-03T20:32:47;9.90;73.20
3198;DHT22;1611;49.394;11.136;2022-10-03T20:35:20;9.80;73.40
3198;DHT22;1611;49.394;11.136;2022-10-03T20:37:52;9.70;73.50
3198;DHT22;1611;49.394;11.136;2022-10-03T20:40:25;9.70;74.10
3198;DHT22;1611;49.394;11.136;2022-10-03T20:43:16;9.60;74.00
3198;DHT22;1611;49.394;11.136;2022-10-03T20:46:03;9.60;74.30
3198;DHT22;1611;49.394;11.136;2022-10-03T20:48:37;9.60;74.40
3198;DHT22;1611;49.394;11.136;2022-10-03T20:51:19;9.50;74.70
3198;DHT22;1611;49.394;11.136;2022-10-03T20:53:48;9.50;74.80
3198;DHT22;1611;49.394;11.136;2022-10-03T20:56:21;9.50;75.10
3198;DHT22;1611;49.394;11.136;2022-10-03T20:58:55;9.50;75.20
3198;DHT22;1611;49.394;11.136;2022-10-03T21:01:25;9.40;74.60
3198;DHT22;1611;49.394;11.136;2022-10-03T21:04:01;9.30;75.00
3198;DHT22;1611;49.394;11.136;2022-10-03T21:06:31;9.30;75.10
3198;DHT22;1611;49.394;11.136;2022-10-03T21:09:04;9.30;75.10
3198;DHT22;1611;49.394;11.136;2022-10-03T21:11:32;9.30;75.20
3198;DHT22;1611;49.394;11.136;2022-10-03T21:14:11;9.30;75.20
3198;DHT22;1611;49.394;11.136;2022-10-03T21:16:44;9.30;75.20
3198;DHT22;1611;49.394;11.136;2022-10-03T21:19:15;9.20;74.70
3198;DHT22;1611;49.394;11.136;2022-10-03T21:21:47;9.20;74.30
3198;DHT22;1611;49.394;11.136;2022-10-03T21:24:21;9.10;74.40
3198;DHT22;1611;49.394;11.136;2022-10-03T21:26:54;9.10;74.80
3198;DHT22;1611;49.394;11.136;2022-10-03T21:29:27;9.00;74.20
3198;DHT22;1611;49.394;11.136;2022-10-03T21:32:05;9.00;74.00
3198;DHT22;1611;49.394;11.136;2022-10-03T21:34:41;9.00;74.00
3198;DHT22;1611;49.394;11.136;2022-10-03T21:37:15;9.00;74.00
3198;DHT22;1611;49.394;11.136;2022-10-03T21:39:58;8.90;73.80
3198;DHT22;1611;49.394;11.136;2022-10-03T21:42:31;8.80;73.90
3198;DHT22;1611;49.394;11.136;2022-10-03T21:45:13;8.80;74.00
3198;DHT22;1611;49.394;11.136;2022-10-03T21:47:45;8.70;74.20
3198;DHT22;1611;49.394;11.136;2022-10-03T21:50:18;8.80;73.90
3198;DHT22;1611;49.394;11.136;2022-10-03T21:53:12;8.80;73.70
3198;DHT22;1611;49.394;11.136;2022-10-03T21:56:02;8.80;72.80
3198;DHT22;1611;49.394;11.136;2022-10-03T21:58:52;8.80;72.30
3198;DHT22;1611;49.394;11.136;2022-10-03T22:01:28;8.70;72.10
3198;DHT22;1611;49.394;11.136;2022-10-03T22:04:01;8.70;72.40
3198;DHT22;1611;49.394;11.136;2022-10-03T22:06:33;8.60;73.00
3198;DHT22;1611;49.394;11.136;2022-10-03T22:09:05;8.60;73.10
3198;DHT22;1611;49.394;11.136;2022-10-03T22:11:40;8.60;73.40
3198;DHT22;1611;49.394;11.136;2022-10-03T22:14:19;8.60;73.70
3198;DHT22;1611;49.394;11.136;2022-10-03T22:16:53;8.70;74.20
3198;DHT22;1611;49.394;11.136;2022-10-03T22:19:31;8.70;74.00
3198;DHT22;1611;49.394;11.136;2022-10-03T22:22:07;8.60;73.80
3198;DHT22;1611;49.394;11.136;2022-10-03T22:24:45;8.50;74.40
3198;DHT22;1611;49.394;11.136;2022-10-03T22:27:19;8.50;74.50
3198;DHT22;1611;49.394;11.136;2022-10-03T22:29:57;8.50;74.40
3198;DHT22;1611;49.394;11.136;2022-10-03T22:32:29;8.50;74.30
3198;DHT22;1611;49.394;11.136;2022-10-03T22:35:08;8.40;74.00
3198;DHT22;1611;49.394;11.136;2022-10-03T22:37:40;8.40;74.30
3198;DHT22;1611;49.394;11.136;2022-10-03T22:40:08;8.30;74.30
3198;DHT22;1611;49.394;11.136;2022-10-03T22:42:39;8.30;74.60
3198;DHT22;1611;49.394;11.136;2022-10-03T22:45:09;8.30;74.60
3198;DHT22;1611;49.394;11.136;2022-10-03T22:47:36;8.30;74.40
3198;DHT22;1611;49.394;11.136;2022-10-03T22:50:08;8.30;74.60
3198;DHT22;1611;49.394;11.136;2022-10-03T22:52:38;8.30;74.70
3198;DHT22;1611;49.394;11.136;2022-10-03T22:55:09;8.20;74.60
3198;DHT22;1611;49.394;11.136;2022-10-03T22:57:40;8.20;74.40
3198;DHT22;1611;49.394;11.136;2022-10-03T23:00:09;8.20;74.60
3198;DHT22;1611;49.394;11.136;2022-10-03T23:02:39;8.20;74.40
3198;DHT22;1611;49.394;11.136;2022-10-03T23:05:10;8.20;74.50
3198;DHT22;1611;49.394;11.136;2022-10-03T23:07:57;8.10;74.50
3198;DHT22;1611;49.394;11.136;2022-10-03T23:10:37;8.10;75.30
3198;DHT22;1611;49.394;11.136;2022-10-03T23:13:13;8.10;75.10
3198;DHT22;1611;49.394;11.136;2022-10-03T23:15:45;8.10;74.90
3198;DHT22;1611;49.394;11.136;2022-10-03T23:18:31;8.20;74.60
3198;DHT22;1611;49.394;11.136;2022-10-03T23:21:04;8.10;74.50
3198;DHT22;1611;49.394;11.136;2022-10-03T23:23:39;8.10;74.60
3198;DHT22;1611;49.394;11.136;2022-10-03T23:29:13;8.10;74.40
3198;DHT22;1611;49.394;11.136;2022-10-03T23:31:56;8.10;74.30
